Marcellus Lady — 9V3144 — position and weather

sailwx.info

Track history (hours):
 
Tides and Currents Weather Stations Pressure Air Temp Water Temp Dewpoint Dewpoint Depression Visibility Wind Speed Wind Dir Waves Ship Positions

Marcellus Lady

Last reported at 2018-Feb-18 20:47 UTC. Time now 2018-Feb-25 23:56 UTC.
Position N 38°40' W 030°57'.

Length 180 m; draft 10 m.

Type: Tanker. MMSI: 565592000.

Date/timePositionNaut miles runAvg speedWind from/ knotsBaromVisibWave heightAir tempDewpointWater temp
2018-Feb-18 20:47N 38°40' W 030°57'414.3
2018-Feb-18 20:30N 38°44' W 030°55'714.4
2018-Feb-18 20:00N 38°50' W 030°50'714.2
2018-Feb-18 19:30N 38°56' W 030°45'714.1
2018-Feb-18 19:00N 39°02' W 030°41'713.5
2018-Feb-18 18:30N 39°08' W 030°37'713.2
2018-Feb-18 18:00N 39°14' W 030°35'713.5
2018-Feb-18 17:30N 39°21' W 030°33'713.4
2018-Feb-18 17:00N 39°28' W 030°31'613.2
2018-Feb-18 16:30N 39°34' W 030°30'713.2
2018-Feb-18 16:00N 39°41' W 030°29'613.0
2018-Feb-18 15:30N 39°47' W 030°27'612.8
2018-Feb-18 15:00N 39°53' W 030°25'612.8
2018-Feb-18 14:30N 39°60' W 030°24'612.5
2018-Feb-18 14:00N 40°06' W 030°22'612.5
2018-Feb-18 13:30N 40°12' W 030°21'612.1
2018-Feb-18 13:00N 40°18' W 030°19'711.9
2018-Feb-18 12:27N 40°24' W 030°18'612.0
2018-Feb-18 11:58N 40°30' W 030°16'612.1
2018-Feb-18 11:30N 40°36' W 030°15'  
2018-Feb-13 21:12N 49°51' W 003°28'312.6
2018-Feb-13 20:58N 49°52' W 003°24'612.7
2018-Feb-13 20:30N 49°54' W 003°15'611.7
2018-Feb-13 20:00N 49°56' W 003°06'611.1
2018-Feb-13 19:30N 49°57' W 002°58'610.3
2018-Feb-13 18:56N 49°59' W 002°49'510.3
2018-Feb-13 18:30N 50°01' W 002°43'510.1
2018-Feb-13 18:00N 50°02' W 002°35'510.0
2018-Feb-13 17:30N 50°04' W 002°28'8 9.9
2018-Feb-13 16:45N 50°06' W 002°17'610.5
2018-Feb-13 16:13N 50°07' W 002°08'211.3
2018-Feb-13 16:00N 50°07' W 002°04'611.8
2018-Feb-13 15:30N 50°09' W 001°56'612.8
2018-Feb-13 15:00N 50°11' W 001°46'713.8
2018-Feb-13 14:30N 50°13' W 001°36'714.5
2018-Feb-13 14:00N 50°14' W 001°25'714.6
2018-Feb-13 13:31N 50°16' W 001°14'3313.3
2018-Feb-13 11:00N 50°25' W 000°23'511.0
2018-Feb-13 10:30N 50°27' W 000°16'611.2
2018-Feb-13 09:59N 50°29' W 000°07'511.1
2018-Feb-13 09:30N 50°30' E 000°01'611.1
2018-Feb-13 09:00N 50°32' E 000°10'611.4
2018-Feb-13 08:30N 50°33' E 000°18'611.2
2018-Feb-13 08:01N 50°35' E 000°27'611.3
2018-Feb-13 07:30N 50°36' E 000°35'611.1
2018-Feb-13 07:01N 50°39' E 000°42'611.6
2018-Feb-13 06:31N 50°43' E 000°50'612.2
2018-Feb-13 06:01N 50°46' E 000°57'713.3
2018-Feb-13 05:30N 50°50' E 001°06'714.0
2018-Feb-13 05:00N 50°54' E 001°16'814.2
2018-Feb-13 04:28N 50°59' E 001°24'612.4
2018-Feb-13 04:01N 51°04' E 001°30'510.3
2018-Feb-13 03:31N 51°07' E 001°36'510.3
2018-Feb-13 03:00N 51°11' E 001°41'510.0
2018-Feb-13 02:31N 51°15' E 001°47'5 8.9
2018-Feb-13 02:00N 51°19' E 001°50'5 9.5
2018-Feb-13 01:31N 51°23' E 001°54'612.1
2018-Feb-13 01:00N 51°28' E 001°59'611.7
2018-Feb-13 00:30N 51°32' E 002°05'612.0
2018-Feb-13 00:00N 51°37' E 002°12'612.3
2018-Feb-12 23:30N 51°41' E 002°19'612.4
2018-Feb-12 23:00N 51°46' E 002°25'42112.6
2018-Feb-11 13:30N 58°40' E 004°43'4 8.0
2018-Feb-11 13:00N 58°44' E 004°45'6 9.5
2018-Feb-11 12:24N 58°47' E 004°54'3 8.8
2018-Feb-11 12:00N 58°50' E 004°59'4 8.6
2018-Feb-11 11:30N 58°53' E 005°02'5 9.6
2018-Feb-11 11:00N 58°58' E 005°06'510.8
2018-Feb-11 10:30N 59°03' E 005°10'611.9
2018-Feb-11 10:00N 59°06' E 005°20'510.9
2018-Feb-11 09:30N 59°08' E 005°30'4 8.3
2018-Feb-11 09:00N 59°12' E 005°32'4 8.0
2018-Feb-11 08:30N 59°16' E 005°30'0 0.3
2018-Feb-11 07:59N 59°16' E 005°30'0 0.0
2018-Feb-11 07:29N 59°16' E 005°30'0 0.0
2018-Feb-11 06:59N 59°16' E 005°30'0 0.0
2018-Feb-11 06:29N 59°16' E 005°30'0 0.0
2018-Feb-11 05:59N 59°16' E 005°30'0 0.0
2018-Feb-11 05:29N 59°16' E 005°30'0 0.0
2018-Feb-11 04:59N 59°16' E 005°30'0 0.0
2018-Feb-11 04:29N 59°16' E 005°30'0 0.0
2018-Feb-11 03:59N 59°16' E 005°30'0 0.0
2018-Feb-11 03:26N 59°16' E 005°30'0 0.0
2018-Feb-11 02:59N 59°16' E 005°30'0 0.0
2018-Feb-11 02:29N 59°16' E 005°30'0 0.0
2018-Feb-11 01:59N 59°16' E 005°30'0 0.0
2018-Feb-11 01:29N 59°16' E 005°30'0 0.0
2018-Feb-11 00:59N 59°16' E 005°30'0 0.0
2018-Feb-11 00:29N 59°16' E 005°30'0 0.0
2018-Feb-10 23:59N 59°16' E 005°30'0 0.0
2018-Feb-10 23:29N 59°16' E 005°30'0 0.0
2018-Feb-10 22:59N 59°16' E 005°30'0 0.0
2018-Feb-10 22:29N 59°16' E 005°30'0 0.0
2018-Feb-10 21:59N 59°16' E 005°30'0 0.0
2018-Feb-10 21:29N 59°16' E 005°30'0 0.0
2018-Feb-10 20:59N 59°16' E 005°30'0 0.0
2018-Feb-10 20:29N 59°16' E 005°30'0 0.0
2018-Feb-10 19:59N 59°16' E 005°30'0 0.0
2018-Feb-10 19:26N 59°16' E 005°30'0 0.0
2018-Feb-10 18:59N 59°16' E 005°30'0 0.0
2018-Feb-10 18:29N 59°16' E 005°30'0 0.0
2018-Feb-10 17:59N 59°16' E 005°30'0 0.0
2018-Feb-10 17:29N 59°16' E 005°30'0 0.0
2018-Feb-10 16:59N 59°16' E 005°30'0 0.0
2018-Feb-10 16:29N 59°16' E 005°30'0 0.0
2018-Feb-10 15:59N 59°16' E 005°30'0 0.0
2018-Feb-10 15:29N 59°16' E 005°30'0 0.0
2018-Feb-10 14:59N 59°16' E 005°30'0 0.0
2018-Feb-10 14:29N 59°16' E 005°30'0 0.0
2018-Feb-10 13:59N 59°16' E 005°30'0 0.0
2018-Feb-10 13:29N 59°16' E 005°30'0 0.0
2018-Feb-10 12:59N 59°16' E 005°30'0 0.0
2018-Feb-10 12:29N 59°16' E 005°30'0 0.0
2018-Feb-10 11:59N 59°16' E 005°30'0 0.0
2018-Feb-10 11:29N 59°16' E 005°30'0 0.0
2018-Feb-10 10:59N 59°16' E 005°30'0 0.0
2018-Feb-10 10:29N 59°16' E 005°30'0 0.2
2018-Feb-10 10:00N 59°16' E 005°30'2 5.0
2018-Feb-10 09:30N 59°14' E 005°31'611.3
2018-Feb-10 09:00N 59°08' E 005°30'3 6.5
2018-Feb-10 08:30N 59°06' E 005°26'2 4.7
2018-Feb-10 08:00N 59°05' E 005°21'3 5.4
2018-Feb-10 07:30N 59°04' E 005°17'4 8.2
2018-Feb-10 07:00N 59°02' E 005°10'4 8.4
2018-Feb-10 06:30N 58°59' E 005°03'5 8.9
2018-Feb-10 05:59N 58°57' E 004°56'4 9.2
2018-Feb-10 05:30N 58°55' E 004°48'5 9.2
2018-Feb-10 05:00N 58°54' E 004°40'2 2.1
2018-Feb-10 04:07N 58°52' E 004°37'0 1.2
2018-Feb-10 03:48N 58°52' E 004°38'0 1.2
2018-Feb-10 03:30N 58°52' E 004°38'1 1.2
2018-Feb-10 02:59N 58°53' E 004°39'1 1.1
2018-Feb-10 02:29N 58°53' E 004°40'0 0.9
2018-Feb-10 01:59N 58°53' E 004°41'0 0.2
2018-Feb-10 01:30N 58°53' E 004°41'3 6.0
2018-Feb-10 01:00N 58°54' E 004°47'4 8.5
2018-Feb-10 00:31N 58°55' E 004°55'4 8.1
2018-Feb-10 00:00N 58°55' E 005°02'2 4.9
2018-Feb-09 23:30N 58°56' E 005°07'1 3.0
2018-Feb-09 23:00N 58°55' E 005°05'2 8.7
2018-Feb-09 22:46N 58°52' E 005°04'312.0
2018-Feb-09 22:31N 58°50' E 005°02'714.8
2018-Feb-09 22:00N 58°43' E 004°57'  
Track history (hours):
 
Tides and Currents Weather Stations Pressure Air Temp Water Temp Dewpoint Dewpoint Depression Visibility Wind Speed Wind Dir Waves Ship Positions

Marcellus Lady

Last reported at 2018-Feb-18 20:47 UTC. Time now 2018-Feb-25 23:56 UTC.
Position N 38°40' W 030°57'.

Length 180 m; draft 10 m.

Type: Tanker. MMSI: 565592000.

Date/timePositionNaut miles runAvg speedWind from/ knotsBaromVisibWave heightAir tempDewpointWater temp
2018-Feb-18 20:47N 38°40' W 030°57'414.3
2018-Feb-18 20:30N 38°44' W 030°55'714.4
2018-Feb-18 20:00N 38°50' W 030°50'714.2
2018-Feb-18 19:30N 38°56' W 030°45'714.1
2018-Feb-18 19:00N 39°02' W 030°41'713.5
2018-Feb-18 18:30N 39°08' W 030°37'713.2
2018-Feb-18 18:00N 39°14' W 030°35'713.5
2018-Feb-18 17:30N 39°21' W 030°33'713.4
2018-Feb-18 17:00N 39°28' W 030°31'613.2
2018-Feb-18 16:30N 39°34' W 030°30'713.2
2018-Feb-18 16:00N 39°41' W 030°29'613.0
2018-Feb-18 15:30N 39°47' W 030°27'612.8
2018-Feb-18 15:00N 39°53' W 030°25'612.8
2018-Feb-18 14:30N 39°60' W 030°24'612.5
2018-Feb-18 14:00N 40°06' W 030°22'612.5
2018-Feb-18 13:30N 40°12' W 030°21'612.1
2018-Feb-18 13:00N 40°18' W 030°19'711.9
2018-Feb-18 12:27N 40°24' W 030°18'612.0
2018-Feb-18 11:58N 40°30' W 030°16'612.1
2018-Feb-18 11:30N 40°36' W 030°15'  
2018-Feb-13 21:12N 49°51' W 003°28'312.6
2018-Feb-13 20:58N 49°52' W 003°24'612.7
2018-Feb-13 20:30N 49°54' W 003°15'611.7
2018-Feb-13 20:00N 49°56' W 003°06'611.1
2018-Feb-13 19:30N 49°57' W 002°58'610.3
2018-Feb-13 18:56N 49°59' W 002°49'510.3
2018-Feb-13 18:30N 50°01' W 002°43'510.1
2018-Feb-13 18:00N 50°02' W 002°35'510.0
2018-Feb-13 17:30N 50°04' W 002°28'8 9.9
2018-Feb-13 16:45N 50°06' W 002°17'610.5
2018-Feb-13 16:13N 50°07' W 002°08'211.3
2018-Feb-13 16:00N 50°07' W 002°04'611.8
2018-Feb-13 15:30N 50°09' W 001°56'612.8
2018-Feb-13 15:00N 50°11' W 001°46'713.8
2018-Feb-13 14:30N 50°13' W 001°36'714.5
2018-Feb-13 14:00N 50°14' W 001°25'714.6
2018-Feb-13 13:31N 50°16' W 001°14'3313.3
2018-Feb-13 11:00N 50°25' W 000°23'511.0
2018-Feb-13 10:30N 50°27' W 000°16'611.2
2018-Feb-13 09:59N 50°29' W 000°07'511.1
2018-Feb-13 09:30N 50°30' E 000°01'611.1
2018-Feb-13 09:00N 50°32' E 000°10'611.4
2018-Feb-13 08:30N 50°33' E 000°18'611.2
2018-Feb-13 08:01N 50°35' E 000°27'611.3
2018-Feb-13 07:30N 50°36' E 000°35'611.1
2018-Feb-13 07:01N 50°39' E 000°42'611.6
2018-Feb-13 06:31N 50°43' E 000°50'612.2
2018-Feb-13 06:01N 50°46' E 000°57'713.3
2018-Feb-13 05:30N 50°50' E 001°06'714.0
2018-Feb-13 05:00N 50°54' E 001°16'814.2
2018-Feb-13 04:28N 50°59' E 001°24'612.4
2018-Feb-13 04:01N 51°04' E 001°30'510.3
2018-Feb-13 03:31N 51°07' E 001°36'510.3
2018-Feb-13 03:00N 51°11' E 001°41'510.0
2018-Feb-13 02:31N 51°15' E 001°47'5 8.9
2018-Feb-13 02:00N 51°19' E 001°50'5 9.5
2018-Feb-13 01:31N 51°23' E 001°54'612.1
2018-Feb-13 01:00N 51°28' E 001°59'611.7
2018-Feb-13 00:30N 51°32' E 002°05'612.0
2018-Feb-13 00:00N 51°37' E 002°12'612.3
2018-Feb-12 23:30N 51°41' E 002°19'612.4
2018-Feb-12 23:00N 51°46' E 002°25'42112.6
2018-Feb-11 13:30N 58°40' E 004°43'4 8.0
2018-Feb-11 13:00N 58°44' E 004°45'6 9.5
2018-Feb-11 12:24N 58°47' E 004°54'3 8.8
2018-Feb-11 12:00N 58°50' E 004°59'4 8.6
2018-Feb-11 11:30N 58°53' E 005°02'5 9.6
2018-Feb-11 11:00N 58°58' E 005°06'510.8
2018-Feb-11 10:30N 59°03' E 005°10'611.9
2018-Feb-11 10:00N 59°06' E 005°20'510.9
2018-Feb-11 09:30N 59°08' E 005°30'4 8.3
2018-Feb-11 09:00N 59°12' E 005°32'4 8.0
2018-Feb-11 08:30N 59°16' E 005°30'0 0.3
2018-Feb-11 07:59N 59°16' E 005°30'0 0.0
2018-Feb-11 07:29N 59°16' E 005°30'0 0.0
2018-Feb-11 06:59N 59°16' E 005°30'0 0.0
2018-Feb-11 06:29N 59°16' E 005°30'0 0.0
2018-Feb-11 05:59N 59°16' E 005°30'0 0.0
2018-Feb-11 05:29N 59°16' E 005°30'0 0.0
2018-Feb-11 04:59N 59°16' E 005°30'0 0.0
2018-Feb-11 04:29N 59°16' E 005°30'0 0.0
2018-Feb-11 03:59N 59°16' E 005°30'0 0.0
2018-Feb-11 03:26N 59°16' E 005°30'0 0.0
2018-Feb-11 02:59N 59°16' E 005°30'0 0.0
2018-Feb-11 02:29N 59°16' E 005°30'0 0.0
2018-Feb-11 01:59N 59°16' E 005°30'0 0.0
2018-Feb-11 01:29N 59°16' E 005°30'0 0.0
2018-Feb-11 00:59N 59°16' E 005°30'0 0.0
2018-Feb-11 00:29N 59°16' E 005°30'0 0.0
2018-Feb-10 23:59N 59°16' E 005°30'0 0.0
2018-Feb-10 23:29N 59°16' E 005°30'0 0.0
2018-Feb-10 22:59N 59°16' E 005°30'0 0.0
2018-Feb-10 22:29N 59°16' E 005°30'0 0.0
2018-Feb-10 21:59N 59°16' E 005°30'0 0.0
2018-Feb-10 21:29N 59°16' E 005°30'0 0.0
2018-Feb-10 20:59N 59°16' E 005°30'0 0.0
2018-Feb-10 20:29N 59°16' E 005°30'0 0.0
2018-Feb-10 19:59N 59°16' E 005°30'0 0.0
2018-Feb-10 19:26N 59°16' E 005°30'0 0.0
2018-Feb-10 18:59N 59°16' E 005°30'0 0.0
2018-Feb-10 18:29N 59°16' E 005°30'0 0.0
2018-Feb-10 17:59N 59°16' E 005°30'0 0.0
2018-Feb-10 17:29N 59°16' E 005°30'0 0.0
2018-Feb-10 16:59N 59°16' E 005°30'0 0.0
2018-Feb-10 16:29N 59°16' E 005°30'0 0.0
2018-Feb-10 15:59N 59°16' E 005°30'0 0.0
2018-Feb-10 15:29N 59°16' E 005°30'0 0.0
2018-Feb-10 14:59N 59°16' E 005°30'0 0.0
2018-Feb-10 14:29N 59°16' E 005°30'0 0.0
2018-Feb-10 13:59N 59°16' E 005°30'0 0.0
2018-Feb-10 13:29N 59°16' E 005°30'0 0.0
2018-Feb-10 12:59N 59°16' E 005°30'0 0.0
2018-Feb-10 12:29N 59°16' E 005°30'0 0.0
2018-Feb-10 11:59N 59°16' E 005°30'0 0.0
2018-Feb-10 11:29N 59°16' E 005°30'0 0.0
2018-Feb-10 10:59N 59°16' E 005°30'0 0.0
2018-Feb-10 10:29N 59°16' E 005°30'0 0.2
2018-Feb-10 10:00N 59°16' E 005°30'2 5.0
2018-Feb-10 09:30N 59°14' E 005°31'611.3
2018-Feb-10 09:00N 59°08' E 005°30'3 6.5
2018-Feb-10 08:30N 59°06' E 005°26'2 4.7
2018-Feb-10 08:00N 59°05' E 005°21'3 5.4
2018-Feb-10 07:30N 59°04' E 005°17'4 8.2
2018-Feb-10 07:00N 59°02' E 005°10'4 8.4
2018-Feb-10 06:30N 58°59' E 005°03'5 8.9
2018-Feb-10 05:59N 58°57' E 004°56'4 9.2
2018-Feb-10 05:30N 58°55' E 004°48'5 9.2
2018-Feb-10 05:00N 58°54' E 004°40'2 2.1
2018-Feb-10 04:07N 58°52' E 004°37'0 1.2
2018-Feb-10 03:48N 58°52' E 004°38'0 1.2
2018-Feb-10 03:30N 58°52' E 004°38'1 1.2
2018-Feb-10 02:59N 58°53' E 004°39'1 1.1
2018-Feb-10 02:29N 58°53' E 004°40'0 0.9
2018-Feb-10 01:59N 58°53' E 004°41'0 0.2
2018-Feb-10 01:30N 58°53' E 004°41'3 6.0
2018-Feb-10 01:00N 58°54' E 004°47'4 8.5
2018-Feb-10 00:31N 58°55' E 004°55'4 8.1
2018-Feb-10 00:00N 58°55' E 005°02'2 4.9
2018-Feb-09 23:30N 58°56' E 005°07'1 3.0
2018-Feb-09 23:00N 58°55' E 005°05'2 8.7
2018-Feb-09 22:46N 58°52' E 005°04'312.0
2018-Feb-09 22:31N 58°50' E 005°02'714.8
2018-Feb-09 22:00N 58°43' E 004°57'  

Dump ship's entire track history